createdAt,value
2018-09-06T00:02:26.457Z,19.90
2018-09-06T00:04:55.514Z,19.90
2018-09-06T00:07:24.577Z,19.90
2018-09-06T00:09:53.566Z,19.80
2018-09-06T00:12:22.530Z,19.80
2018-09-06T00:14:51.644Z,19.80
2018-09-06T00:17:20.642Z,19.80
2018-09-06T00:19:49.633Z,19.70
2018-09-06T00:22:18.598Z,19.80
2018-09-06T00:24:47.609Z,19.80
2018-09-06T00:27:16.701Z,19.60
2018-09-06T00:29:45.799Z,19.60
2018-09-06T00:32:14.686Z,19.50
2018-09-06T00:34:43.770Z,19.50
2018-09-06T00:37:12.879Z,19.60
2018-09-06T00:39:41.949Z,19.60
2018-09-06T00:42:11.053Z,19.60
2018-09-06T00:44:40.285Z,19.60
2018-09-06T00:47:09.582Z,19.60
2018-09-06T00:49:38.643Z,19.60
2018-09-06T00:52:07.731Z,19.50
2018-09-06T00:54:36.823Z,19.50
2018-09-06T00:57:05.867Z,19.40
2018-09-06T00:59:34.953Z,19.40
2018-09-06T01:02:03.933Z,19.40
2018-09-06T01:04:33.103Z,19.30
2018-09-06T01:07:02.175Z,19.20
2018-09-06T01:09:31.213Z,19.20
2018-09-06T01:12:00.318Z,19.20
2018-09-06T01:14:29.304Z,19.20
2018-09-06T01:16:58.284Z,19.20
2018-09-06T01:19:27.292Z,19.20
2018-09-06T01:21:56.374Z,19.10
2018-09-06T01:24:25.478Z,19.10
2018-09-06T01:26:54.558Z,19.20
2018-09-06T01:29:23.692Z,19.20
2018-09-06T01:31:52.740Z,19.20
2018-09-06T01:34:21.980Z,19.20
2018-09-06T01:36:51.081Z,19.20
2018-09-06T01:39:20.193Z,19.20
2018-09-06T01:41:49.217Z,19.20
2018-09-06T01:44:18.243Z,19.20
2018-09-06T01:46:47.345Z,19.20
2018-09-06T01:49:16.206Z,19.20
2018-09-06T01:51:45.223Z,19.10
2018-09-06T01:54:14.193Z,19.10
2018-09-06T01:56:43.157Z,19.00
2018-09-06T01:59:13.969Z,19.00
2018-09-06T02:01:43.460Z,18.90
2018-09-06T02:04:12.500Z,18.90
2018-09-06T02:06:41.520Z,18.90
2018-09-06T02:09:10.667Z,18.90
2018-09-06T02:11:40.929Z,18.80
2018-09-06T02:14:10.128Z,18.80
2018-09-06T02:16:39.322Z,18.80
2018-09-06T02:19:08.500Z,18.80
2018-09-06T02:21:37.680Z,18.80
2018-09-06T02:24:06.929Z,18.80
2018-09-06T02:26:36.020Z,18.80
2018-09-06T02:29:05.227Z,18.80
2018-09-06T02:31:34.289Z,18.70
2018-09-06T02:34:03.377Z,18.70
2018-09-06T02:36:32.447Z,18.70
2018-09-06T02:39:01.561Z,18.70
2018-09-06T02:41:30.552Z,18.70
2018-09-06T02:43:59.686Z,18.70
2018-09-06T02:46:28.776Z,18.60
2018-09-06T02:48:57.767Z,18.60
2018-09-06T02:51:26.766Z,18.50
2018-09-06T02:53:55.868Z,18.50
2018-09-06T02:56:24.839Z,18.40
2018-09-06T02:58:54.048Z,18.30
2018-09-06T03:01:23.175Z,18.30
2018-09-06T03:03:52.216Z,18.30
2018-09-06T03:06:21.238Z,18.30
2018-09-06T03:08:50.215Z,18.30
2018-09-06T03:11:22.920Z,18.40
2018-09-06T03:13:52.569Z,18.40
2018-09-06T03:16:21.761Z,18.30
2018-09-06T03:18:51.202Z,18.30
2018-09-06T03:21:20.592Z,18.20
2018-09-06T03:23:49.828Z,18.20
2018-09-06T03:26:19.888Z,18.30
2018-09-06T03:28:50.081Z,18.20
2018-09-06T03:31:19.245Z,18.10
2018-09-06T03:33:48.217Z,18.20
2018-09-06T03:36:17.221Z,18.20
2018-09-06T03:38:46.414Z,18.20
2018-09-06T03:41:15.404Z,18.20
2018-09-06T03:43:44.775Z,18.20
2018-09-06T03:46:13.878Z,18.20
2018-09-06T03:48:42.922Z,18.10
2018-09-06T03:51:12.116Z,18.10
2018-09-06T03:53:41.383Z,18.20
2018-09-06T03:56:10.496Z,18.20
2018-09-06T03:58:39.620Z,18.20
2018-09-06T04:01:08.633Z,18.20
2018-09-06T04:03:37.795Z,18.10
2018-09-06T04:06:06.860Z,18.10
2018-09-06T04:08:35.980Z,18.10
2018-09-06T04:11:05.050Z,18.10
2018-09-06T04:13:34.128Z,18.00
2018-09-06T04:16:03.287Z,17.90
2018-09-06T04:18:32.380Z,17.90
2018-09-06T04:21:01.318Z,17.90
2018-09-06T04:23:30.492Z,17.90
2018-09-06T04:25:59.792Z,17.80
2018-09-06T04:28:29.024Z,17.80
2018-09-06T04:30:58.174Z,17.80
2018-09-06T04:33:27.334Z,17.90
2018-09-06T04:35:56.430Z,17.90
2018-09-06T04:38:25.598Z,18.00
2018-09-06T04:40:54.816Z,18.00
2018-09-06T04:43:24.009Z,18.00
2018-09-06T04:45:52.938Z,18.00
2018-09-06T04:48:22.087Z,18.00
2018-09-06T04:50:51.297Z,18.00
2018-09-06T04:53:20.391Z,17.90
2018-09-06T04:55:49.492Z,17.90
2018-09-06T04:58:18.581Z,17.90
2018-09-06T05:00:47.871Z,17.90
2018-09-06T05:03:16.979Z,17.90
2018-09-06T05:05:47.088Z,17.90
2018-09-06T05:08:16.213Z,17.90
2018-09-06T05:10:45.278Z,17.90
2018-09-06T05:13:14.383Z,17.90
2018-09-06T05:15:43.552Z,17.80
2018-09-06T05:18:12.739Z,17.80
2018-09-06T05:20:42.136Z,17.80
2018-09-06T05:23:11.264Z,17.80
2018-09-06T05:25:40.293Z,17.80
2018-09-06T05:28:09.512Z,17.80
2018-09-06T05:30:39.195Z,17.70
2018-09-06T05:33:08.164Z,17.70
2018-09-06T05:35:37.128Z,17.60
2018-09-06T05:38:06.133Z,17.60
2018-09-06T05:40:35.135Z,17.60
2018-09-06T05:43:04.349Z,17.70
2018-09-06T05:45:33.311Z,17.60
2018-09-06T05:48:02.416Z,17.60
2018-09-06T05:50:31.917Z,17.50
2018-09-06T05:53:02.106Z,17.40
2018-09-06T05:55:31.858Z,17.40
2018-09-06T05:58:00.940Z,17.40
2018-09-06T06:00:35.224Z,17.30
2018-09-06T06:03:06.120Z,17.40
2018-09-06T06:05:35.189Z,17.30
2018-09-06T06:08:15.146Z,17.40
2018-09-06T06:10:44.193Z,17.30
2018-09-06T06:13:13.237Z,17.30
2018-09-06T06:15:42.328Z,17.40
2018-09-06T06:18:11.415Z,17.40
2018-09-06T06:20:40.723Z,17.40
2018-09-06T06:23:12.616Z,17.40
2018-09-06T06:25:41.884Z,17.40
2018-09-06T06:28:11.125Z,17.40
2018-09-06T06:30:40.179Z,17.50
2018-09-06T06:33:09.170Z,17.50
2018-09-06T06:35:38.356Z,17.60
2018-09-06T06:38:07.440Z,17.60
2018-09-06T06:40:36.685Z,17.60
2018-09-06T06:43:05.701Z,17.70
2018-09-06T06:45:34.845Z,17.70
2018-09-06T06:48:03.806Z,17.80
2018-09-06T06:50:33.047Z,17.80
2018-09-06T06:53:02.152Z,17.90
2018-09-06T06:55:31.325Z,17.90
2018-09-06T06:58:00.416Z,18.00
2018-09-06T07:00:29.687Z,18.00
2018-09-06T07:02:58.816Z,18.00
2018-09-06T07:05:27.851Z,18.00
2018-09-06T07:07:56.891Z,18.00
2018-09-06T07:10:26.004Z,18.10
2018-09-06T07:12:55.104Z,18.10
2018-09-06T07:15:24.180Z,18.10
2018-09-06T07:17:53.303Z,18.10
2018-09-06T07:20:22.368Z,18.20
2018-09-06T07:22:51.575Z,18.20
2018-09-06T07:25:20.968Z,18.20
2018-09-06T07:27:50.047Z,18.30
2018-09-06T07:30:19.196Z,18.30
2018-09-06T07:32:48.238Z,18.40
2018-09-06T07:35:17.415Z,18.40
2018-09-06T07:37:46.362Z,18.40
2018-09-06T07:40:15.562Z,18.40
2018-09-06T07:42:44.676Z,18.50
2018-09-06T07:45:13.940Z,18.50
2018-09-06T07:47:43.068Z,18.60
2018-09-06T07:50:12.299Z,18.60
2018-09-06T07:52:41.419Z,18.60
2018-09-06T07:55:10.541Z,18.60
2018-09-06T07:57:39.694Z,18.60
2018-09-06T08:00:08.868Z,18.70
2018-09-06T08:02:38.040Z,18.70
2018-09-06T08:05:07.236Z,18.70
2018-09-06T08:07:37.255Z,18.80
2018-09-06T08:10:06.729Z,18.80
2018-09-06T08:12:35.841Z,18.90
2018-09-06T08:15:05.328Z,18.90
2018-09-06T08:17:34.360Z,19.00
2018-09-06T08:20:03.601Z,19.00
2018-09-06T08:22:32.727Z,19.00
2018-09-06T08:25:01.718Z,19.10
2018-09-06T08:27:30.705Z,19.10
2018-09-06T08:29:59.795Z,19.10
2018-09-06T08:32:28.907Z,19.20
2018-09-06T08:34:58.041Z,19.20
2018-09-06T08:37:27.174Z,19.30
2018-09-06T08:39:56.377Z,19.30
2018-09-06T08:42:25.564Z,19.40
2018-09-06T08:44:54.687Z,19.40
2018-09-06T08:47:23.879Z,19.40
2018-09-06T08:49:52.955Z,19.50
2018-09-06T08:52:22.136Z,19.50
2018-09-06T08:54:51.140Z,19.60
2018-09-06T08:57:20.310Z,19.60
2018-09-06T08:59:49.453Z,19.70
2018-09-06T09:02:18.553Z,19.70
2018-09-06T09:04:47.717Z,19.80
2018-09-06T09:07:16.843Z,19.80
2018-09-06T09:09:45.935Z,19.90
2018-09-06T09:12:15.210Z,20.00
2018-09-06T09:14:44.437Z,20.00
2018-09-06T09:17:13.600Z,20.10
2018-09-06T09:19:42.719Z,20.20
2018-09-06T09:22:12.454Z,20.20
2018-09-06T09:24:41.630Z,20.30
2018-09-06T09:27:10.804Z,20.40
2018-09-06T09:29:40.036Z,20.40
2018-09-06T09:32:09.221Z,20.50
2018-09-06T09:34:38.537Z,20.60
2018-09-06T09:37:07.820Z,20.70
2018-09-06T09:39:37.112Z,20.80
2018-09-06T09:42:06.497Z,20.80
2018-09-06T09:44:35.745Z,20.90
2018-09-06T09:49:33.279Z,21.00
2018-09-06T09:52:02.397Z,21.10
2018-09-06T09:54:32.588Z,21.20
2018-09-06T09:57:01.700Z,21.20
2018-09-06T09:59:30.836Z,21.30
2018-09-06T10:02:04.962Z,21.40
2018-09-06T10:04:39.332Z,21.50
2018-09-06T10:07:13.832Z,21.50
2018-09-06T10:11:25.305Z,21.60
2018-09-06T10:14:51.756Z,21.70
2018-09-06T10:17:21.009Z,21.80
2018-09-06T10:19:50.044Z,21.90
2018-09-06T10:22:19.260Z,21.90
2018-09-06T10:24:48.389Z,22.00
2018-09-06T10:27:18.360Z,22.00
2018-09-06T10:29:47.504Z,22.10
2018-09-06T10:32:16.675Z,22.20
2018-09-06T10:34:45.861Z,22.30
2018-09-06T10:37:14.983Z,22.40
2018-09-06T10:39:44.258Z,22.50
2018-09-06T10:42:13.560Z,22.50
2018-09-06T10:44:42.799Z,22.60
2018-09-06T10:47:11.956Z,22.70
2018-09-06T10:49:41.038Z,22.70
2018-09-06T10:52:10.250Z,22.80
2018-09-06T10:54:39.432Z,22.90
2018-09-06T10:57:36.900Z,23.00
2018-09-06T11:00:06.495Z,23.10
2018-09-06T11:02:35.831Z,23.20
2018-09-06T11:05:05.053Z,23.30
2018-09-06T11:07:34.408Z,23.30
2018-09-06T11:10:03.713Z,23.40
2018-09-06T11:12:32.712Z,23.50
2018-09-06T11:15:01.743Z,23.50
2018-09-06T11:17:30.805Z,23.60
2018-09-06T11:19:59.815Z,23.70
2018-09-06T11:22:29.021Z,23.70
2018-09-06T11:24:58.039Z,23.80
2018-09-06T11:27:27.253Z,23.80
2018-09-06T11:29:56.479Z,23.90
2018-09-06T11:32:25.867Z,23.90
2018-09-06T11:34:54.684Z,24.10
2018-09-06T11:37:23.740Z,24.10
2018-09-06T11:39:53.018Z,24.20
2018-09-06T11:42:21.856Z,24.30
2018-09-06T11:44:50.853Z,24.30
2018-09-06T11:47:19.946Z,24.40
2018-09-06T11:49:48.817Z,24.50
2018-09-06T11:52:17.791Z,24.50
2018-09-06T11:54:46.623Z,24.60
2018-09-06T11:57:15.533Z,24.60
2018-09-06T11:59:44.711Z,24.70
2018-09-06T12:02:14.082Z,24.90
2018-09-06T12:04:43.312Z,24.90
2018-09-06T12:07:12.816Z,25.00
2018-09-06T12:09:42.002Z,25.00
2018-09-06T12:12:11.038Z,25.10
2018-09-06T12:14:39.941Z,25.20
2018-09-06T12:17:09.305Z,25.30
2018-09-06T12:19:38.603Z,25.40
2018-09-06T12:22:07.679Z,25.40
2018-09-06T12:24:36.778Z,25.40
2018-09-06T12:27:05.915Z,25.50
2018-09-06T12:29:35.096Z,25.50
2018-09-06T12:32:04.248Z,25.50
2018-09-06T12:34:33.539Z,25.50
2018-09-06T12:37:02.852Z,25.60
2018-09-06T12:39:31.808Z,25.70
2018-09-06T12:42:01.068Z,25.80
2018-09-06T12:44:30.348Z,25.90
2018-09-06T12:46:59.750Z,26.00
2018-09-06T12:49:28.997Z,26.10
2018-09-06T12:51:58.268Z,26.30
2018-09-06T12:54:27.466Z,26.30
2018-09-06T12:56:56.353Z,26.50
2018-09-06T12:59:25.573Z,26.60
2018-09-06T13:01:54.441Z,26.70
2018-09-06T13:04:23.603Z,26.80
2018-09-06T13:06:52.636Z,26.80
2018-09-06T13:09:21.901Z,26.90
2018-09-06T13:11:52.725Z,26.80
2018-09-06T13:14:22.166Z,26.80
2018-09-06T13:16:51.384Z,26.80
2018-09-06T13:19:20.651Z,26.80
2018-09-06T13:21:49.736Z,26.70
2018-09-06T13:24:18.822Z,26.70
2018-09-06T13:26:48.167Z,26.60
2018-09-06T13:29:17.334Z,26.60
2018-09-06T13:31:46.342Z,26.60
2018-09-06T13:34:15.528Z,26.60
2018-09-06T13:36:44.590Z,26.60
2018-09-06T13:39:14.173Z,26.60
2018-09-06T13:41:43.056Z,26.50
2018-09-06T13:44:14.464Z,26.50
2018-09-06T13:46:45.601Z,26.50
2018-09-06T13:49:14.687Z,26.40
2018-09-06T13:51:43.689Z,26.30
2018-09-06T13:54:12.694Z,26.30
2018-09-06T13:56:41.552Z,26.30
2018-09-06T13:59:10.880Z,26.30
2018-09-06T14:01:40.066Z,26.30
2018-09-06T14:04:09.141Z,26.20
2018-09-06T14:06:38.246Z,26.20
2018-09-06T14:09:07.764Z,26.20
2018-09-06T14:11:37.026Z,26.10
2018-09-06T14:14:06.487Z,26.10
2018-09-06T14:16:35.337Z,26.00
2018-09-06T14:19:04.189Z,26.00
2018-09-06T14:21:33.012Z,25.90
2018-09-06T14:24:01.954Z,25.90
2018-09-06T14:26:30.772Z,25.80
2018-09-06T14:28:59.594Z,25.70
2018-09-06T14:31:28.615Z,25.70
2018-09-06T14:33:57.444Z,25.40
2018-09-06T14:36:26.566Z,25.00
2018-09-06T14:53:15.572Z,24.50
2018-09-06T14:55:44.650Z,24.00
2018-09-06T15:15:55.639Z,23.60
2018-09-06T15:18:24.436Z,23.70
2018-09-06T15:20:53.249Z,23.50
2018-09-06T15:23:22.104Z,23.40
2018-09-06T15:25:51.277Z,23.40
2018-09-06T15:28:20.384Z,23.40
2018-09-06T15:30:49.459Z,23.40
2018-09-06T15:36:11.244Z,23.40
2018-09-06T15:38:43.754Z,23.30
2018-09-06T15:41:13.895Z,23.30
2018-09-06T15:43:44.190Z,23.20
2018-09-06T15:47:38.451Z,23.10
2018-09-06T15:50:08.016Z,23.00
2018-09-06T15:52:38.218Z,23.00
2018-09-06T15:55:07.836Z,22.90
2018-09-06T15:57:37.255Z,22.90
2018-09-06T16:00:06.668Z,22.90
2018-09-06T16:02:35.504Z,22.80
2018-09-06T16:05:04.598Z,22.80
2018-09-06T16:07:33.635Z,22.70
2018-09-06T16:10:02.779Z,22.60
2018-09-06T16:12:31.858Z,22.60
2018-09-06T16:15:00.946Z,22.60
2018-09-06T16:17:30.064Z,22.50
2018-09-06T16:19:59.312Z,22.50
2018-09-06T16:22:28.433Z,22.50
2018-09-06T16:24:57.526Z,22.40
2018-09-06T16:27:26.621Z,22.40
2018-09-06T16:29:55.825Z,22.50
2018-09-06T16:32:25.135Z,22.40
2018-09-06T16:34:54.328Z,22.40
2018-09-06T16:37:23.408Z,22.40
2018-09-06T16:39:52.396Z,22.40
2018-09-06T16:42:21.523Z,22.40
2018-09-06T16:44:50.577Z,22.30
2018-09-06T16:47:19.704Z,22.30
2018-09-06T16:49:48.784Z,22.30
2018-09-06T16:52:17.901Z,22.30
2018-09-06T16:54:46.758Z,22.20
2018-09-06T16:57:15.851Z,22.20
2018-09-06T16:59:44.957Z,22.20
2018-09-06T17:02:13.972Z,22.20
2018-09-06T17:04:42.973Z,22.20
2018-09-06T17:07:11.996Z,22.10
2018-09-06T17:09:41.021Z,22.10
2018-09-06T17:12:10.027Z,22.10
2018-09-06T17:14:39.045Z,22.00
2018-09-06T17:17:08.116Z,21.90
2018-09-06T17:19:37.204Z,21.90
2018-09-06T17:22:06.075Z,21.90
2018-09-06T17:24:35.100Z,21.80
2018-09-06T17:27:04.284Z,21.80
2018-09-06T17:29:33.498Z,21.70
2018-09-06T17:32:02.683Z,21.70
2018-09-06T17:34:31.873Z,21.60
2018-09-06T17:37:00.840Z,21.60
2018-09-06T17:39:29.919Z,21.70
2018-09-06T17:41:59.061Z,21.50
2018-09-06T17:44:28.172Z,21.60
2018-09-06T17:46:57.176Z,21.60
2018-09-06T17:49:29.170Z,21.60
2018-09-06T17:51:58.413Z,21.60
2018-09-06T17:54:27.624Z,21.50
2018-09-06T17:56:56.729Z,21.50
2018-09-06T17:59:25.604Z,21.50
2018-09-06T18:01:54.865Z,21.50
2018-09-06T18:04:23.740Z,21.50
2018-09-06T18:06:53.243Z,21.50
2018-09-06T18:09:22.134Z,21.50
2018-09-06T18:11:51.285Z,21.60
2018-09-06T18:14:20.106Z,21.50
2018-09-06T18:16:49.534Z,21.50
2018-09-06T18:19:18.742Z,21.40
2018-09-06T18:21:47.886Z,21.30
2018-09-06T18:24:16.844Z,21.20
2018-09-06T18:26:45.950Z,21.30
2018-09-06T18:29:15.054Z,21.20
2018-09-06T18:31:44.332Z,21.20
2018-09-06T18:34:13.560Z,21.20
2018-09-06T18:36:42.656Z,21.20
2018-09-06T18:39:12.011Z,21.20
2018-09-06T18:41:41.250Z,21.20
2018-09-06T18:44:10.472Z,21.10
2018-09-06T18:46:39.744Z,21.00
2018-09-06T18:49:08.710Z,21.10
2018-09-06T18:51:37.809Z,21.00
2018-09-06T18:54:07.026Z,20.90
2018-09-06T18:56:36.214Z,20.80
2018-09-06T18:59:05.434Z,20.80
2018-09-06T19:01:34.242Z,20.70
2018-09-06T19:04:03.379Z,20.60
2018-09-06T19:06:32.499Z,20.60
2018-09-06T19:09:01.719Z,20.70
2018-09-06T19:11:31.428Z,20.70
2018-09-06T19:14:00.236Z,20.70
2018-09-06T19:16:29.216Z,20.70
2018-09-06T19:18:58.384Z,20.80
2018-09-06T19:21:27.458Z,20.70
2018-09-06T19:23:56.404Z,20.70
2018-09-06T19:26:25.939Z,20.70
2018-09-06T19:28:54.984Z,20.70
2018-09-06T19:31:24.157Z,20.70
2018-09-06T19:33:53.533Z,20.70
2018-09-06T19:36:22.662Z,20.60
2018-09-06T19:38:51.827Z,20.60
2018-09-06T19:41:20.772Z,20.60
2018-09-06T19:43:50.078Z,20.60
2018-09-06T19:46:19.286Z,20.60
2018-09-06T19:48:48.395Z,20.60
2018-09-06T19:51:17.637Z,20.60
2018-09-06T19:53:46.826Z,20.50
2018-09-06T19:56:15.916Z,20.50
2018-09-06T19:58:45.021Z,20.50
2018-09-06T20:01:13.874Z,20.50
2018-09-06T20:03:43.097Z,20.40
2018-09-06T20:08:25.779Z,20.40
2018-09-06T20:10:54.642Z,20.40
2018-09-06T20:13:23.880Z,20.30
2018-09-06T20:15:52.687Z,20.30
2018-09-06T20:18:21.589Z,20.30
2018-09-06T20:20:50.418Z,20.30
2018-09-06T20:23:19.239Z,20.30
2018-09-06T20:25:48.337Z,20.30
2018-09-06T20:28:17.238Z,20.30
2018-09-06T20:30:46.043Z,20.30
2018-09-06T20:33:15.158Z,20.30
2018-09-06T20:35:44.096Z,20.20
2018-09-06T20:38:13.099Z,20.20
2018-09-06T20:40:42.302Z,20.20
2018-09-06T20:43:11.360Z,20.10
2018-09-06T20:45:40.565Z,20.10
2018-09-06T20:48:09.707Z,20.10
2018-09-06T20:50:38.684Z,20.10
2018-09-06T20:53:08.040Z,20.00
2018-09-06T20:55:37.386Z,20.00
2018-09-06T20:58:06.412Z,20.00
2018-09-06T21:00:35.584Z,19.90
2018-09-06T21:03:04.808Z,19.90
2018-09-06T21:05:33.864Z,19.80
2018-09-06T21:08:02.987Z,19.90
2018-09-06T21:10:32.104Z,19.80
2018-09-06T21:13:01.276Z,19.70
2018-09-06T21:15:30.364Z,19.60
2018-09-06T21:17:59.348Z,19.60
2018-09-06T21:20:28.159Z,19.70
2018-09-06T21:22:57.144Z,19.70
2018-09-06T21:25:26.125Z,19.60
2018-09-06T21:27:55.423Z,19.70
2018-09-06T21:30:24.638Z,19.60
2018-09-06T21:32:53.604Z,19.60
2018-09-06T21:35:22.761Z,19.60
2018-09-06T21:37:51.848Z,19.60
2018-09-06T21:40:20.985Z,19.60
2018-09-06T21:42:50.054Z,19.60
2018-09-06T21:45:18.888Z,19.60
2018-09-06T21:47:47.999Z,19.60
2018-09-06T21:50:16.970Z,19.60
2018-09-06T21:52:45.954Z,19.60
2018-09-06T21:55:15.060Z,19.60
2018-09-06T21:57:44.244Z,19.50
2018-09-06T22:00:13.104Z,19.50
2018-09-06T22:02:47.581Z,19.50
2018-09-06T22:05:16.620Z,19.50
2018-09-06T22:07:45.667Z,19.40
2018-09-06T22:10:14.588Z,19.40
2018-09-06T22:12:43.626Z,19.50
2018-09-06T22:15:12.838Z,19.50
2018-09-06T22:17:41.645Z,19.50
2018-09-06T22:20:10.816Z,19.50
2018-09-06T22:22:40.009Z,19.40
2018-09-06T22:25:09.201Z,19.40
2018-09-06T22:27:38.208Z,19.30
2018-09-06T22:30:07.531Z,19.30
2018-09-06T22:32:36.697Z,19.30
2018-09-06T22:35:05.864Z,19.30
2018-09-06T22:37:34.916Z,19.30
2018-09-06T22:40:04.288Z,19.30
2018-09-06T22:42:33.297Z,19.40
2018-09-06T22:45:02.080Z,19.30
2018-09-06T22:47:30.933Z,19.30
2018-09-06T22:50:00.078Z,19.30
2018-09-06T22:52:29.166Z,19.30
2018-09-06T22:54:58.301Z,19.30
2018-09-06T22:57:27.251Z,19.30
2018-09-06T22:59:56.248Z,19.30
2018-09-06T23:02:29.481Z,19.20
2018-09-06T23:04:58.271Z,19.30
2018-09-06T23:07:27.509Z,19.30
2018-09-06T23:09:56.497Z,19.30
2018-09-06T23:12:25.451Z,19.30
2018-09-06T23:14:54.430Z,19.30
2018-09-06T23:17:23.364Z,19.30
2018-09-06T23:19:52.368Z,19.20
2018-09-06T23:22:21.649Z,19.20
2018-09-06T23:24:50.916Z,19.20
2018-09-06T23:27:20.056Z,19.10
2018-09-06T23:29:48.876Z,19.00
2018-09-06T23:32:17.937Z,19.00
2018-09-06T23:34:47.050Z,19.00
2018-09-06T23:37:16.196Z,19.00
2018-09-06T23:39:45.428Z,18.90
2018-09-06T23:42:14.408Z,18.90
2018-09-06T23:44:43.433Z,18.90
2018-09-06T23:47:12.409Z,18.80
2018-09-06T23:49:41.639Z,18.80
2018-09-06T23:52:10.812Z,18.80
2018-09-06T23:54:39.905Z,18.80
2018-09-06T23:57:08.980Z,18.80
2018-09-06T23:59:38.109Z,18.70
